Aérodrome :
LOGIN :

S'inscrire | Disclaimer

   EN    FR    IT 

 










Légende :    VFR   VFR Marginal   IFR   IFR Intensif   IFR Très Intensif
Visi : 
Plafond : 
>= 8 km
>= 3000ft
5 à 8 km
1000 à 3000 ft
1500m à 5 km
500 à 1000 ft
800 à 1500m
200 à 500 ft
< 800m
< 200 ft
Symboles :   Orages  Brouillard  Fortes neiges  Fortes précipitations  Vent > 20 kt
SIGMETs :   Divers  Orages  Givrage  Turbulence  Onde Orograph.  Cendres Volcan.







- Altitude de l'aérodrome : 436 ft
- Code IATA : ANG
- Voir les cartes d'approche


LFBU - Angoulême Brie Champniers

DERNIER METAR :
  • 111300Z AUTO VRB03KT CAVOK 09/05 Q1023 NOSIG

METARs EXPIRÉS :
  • 111230Z AUTO 02004KT 340V060 CAVOK 09/05 Q1023 NOSIG
  • 111200Z AUTO VRB03KT CAVOK 09/05 Q1024 NOSIG
  • 111130Z AUTO VRB02KT CAVOK 08/06 Q1024 NOSIG
  • 111100Z AUTO VRB02KT CAVOK 06/05 Q1024 NOSIG
  • 111030Z AUTO VRB02KT CAVOK 05/05 Q1025 NOSIG
  • 111000Z AUTO 00000KT CAVOK 05/04 Q1025 NOSIG

TAF TAF LFBU
Valide du 11 à 12h jusqu'au 12 à 12h UTC


111100Z 1112/1212 06007KT CAVOK
BECMG 1200/1202 OVC014
TEMPO 1202/1212 4000 -RA BKN006
Pas de NOTAMs connus pour ce terrain.



MET'MAP, la Météo Aéronautique d'un coup d'oeil ! - Copyright ORBIFLY Décembre 2007 - Disclaimer

ORBIFLY MET'MAP TEAM :

Programmation & Développement : Alexandra Zaïnal
Conception & Développement : Baudouin d'Aumeries
Co-Programmation & Développement : Marc-Olivier Méhu
Soutien technique & logistique : Manuel Goepfert

Contact : metmap@orbifly.com




SOURCES & CREDITS :

   NOAA